Time;durP1;ratioP1;P1;durP2;ratioP2;P2;SDS_P1;SDS_P2;PMS_P1;PMS_P2;Temp;Humidity;BMP_temperature;BMP_pressure;BME280_temperature;BME280_humidity;BME280_pressure;Samples;Min_cycle;Max_cycle;Signal;HPM_P1;HPM_P2
2021/06/21 10:29:17;;;;;;;4.85;1.52;;;24.50;95.20;;;;;;14813727;22;217245;-58
2021/06/21 10:35:05;;;;;;;5.22;1.23;;;24.70;97.40;;;;;;14731567;22;20110;-58
2021/06/21 10:40:56;;;;;;;3.20;1.17;;;24.90;94.40;;;;;;14730829;23;20079;-58
2021/06/21 10:46:44;;;;;;;4.40;1.08;;;25.00;92.90;;;;;;14730324;23;20033;-58
2021/06/21 10:52:37;;;;;;;4.78;1.42;;;24.90;93.40;;;;;;14730572;23;20099;-58
2021/06/21 10:58:45;;;;;;;7.67;1.63;;;25.00;93.20;;;;;;14723239;23;20426;-57
2021/06/21 11:04:46;;;;;;;5.72;1.38;;;25.10;93.20;;;;;;14715126;23;20566;-57
2021/06/21 11:10:34;;;;;;;7.88;1.20;;;25.00;92.80;;;;;;14713423;23;20024;-56
2021/06/21 11:16:24;;;;;;;6.13;1.30;;;24.80;91.80;;;;;;14707562;22;20032;-57
2021/06/21 11:22:13;;;;;;;5.50;1.30;;;25.00;91.80;;;;;;14723055;22;20021;-55
2021/06/21 11:28:00;;;;;;;4.88;1.02;;;25.10;90.40;;;;;;14695389;23;20028;-57
2021/06/21 11:40:30;;;;;;;5.75;1.63;;;25.00;86.70;;;;;;14713090;23;20025;-57
2021/06/21 11:52:58;;;;;;;5.18;1.98;;;25.30;89.40;;;;;;14648121;23;20479;-57
2021/06/21 11:58:50;;;;;;;13.57;1.77;;;25.30;89.70;;;;;;14708919;22;20127;-57
2021/06/21 12:04:38;;;;;;;4.70;1.00;;;25.50;87.70;;;;;;14713615;23;20025;-56
2021/06/21 12:10:25;;;;;;;2.92;1.20;;;25.50;87.20;;;;;;14713026;23;20108;-57
2021/06/21 12:16:16;;;;;;;5.85;1.30;;;25.50;84.90;;;;;;14713393;23;20021;-57
2021/06/21 12:22:07;;;;;;;3.90;1.05;;;25.60;83.50;;;;;;14713579;23;20024;-58
2021/06/21 12:27:56;;;;;;;2.65;1.08;;;25.80;84.90;;;;;;14694902;23;20345;-56
2021/06/21 12:33:45;;;;;;;7.63;1.20;;;26.10;79.10;;;;;;14680728;23;20017;-58
2021/06/21 12:39:36;;;;;;;2.08;0.70;;;26.00;79.50;;;;;;14679586;23;20379;-59
2021/06/21 12:45:28;;;;;;;5.25;0.65;;;26.40;76.80;;;;;;14680912;23;20021;-58
2021/06/21 12:51:18;;;;;;;3.45;0.68;;;26.80;73.70;;;;;;14680674;23;20570;-58
2021/06/21 12:57:06;;;;;;;5.00;0.90;;;26.70;74.00;;;;;;14679683;23;20037;-57
2021/06/21 13:03:08;;;;;;;3.67;0.90;;;26.50;73.70;;;;;;14681779;23;20369;-58
2021/06/21 13:09:02;;;;;;;1.67;0.60;;;26.70;75.70;;;;;;14677580;23;20209;-59
2021/06/21 13:14:49;;;;;;;1.92;0.93;;;26.90;76.20;;;;;;14679785;23;20084;-59
2021/06/21 13:20:36;;;;;;;4.90;0.90;;;26.70;73.80;;;;;;14678423;23;20112;-57
2021/06/21 13:26:33;;;;;;;2.25;0.85;;;26.70;73.80;;;;;;14678132;23;20028;-58
2021/06/21 13:32:22;;;;;;;2.53;0.88;;;26.70;75.20;;;;;;14673374;23;20025;-58
2021/06/21 13:38:12;;;;;;;5.05;1.20;;;27.10;74.50;;;;;;14678886;23;20499;-59
2021/06/21 13:44:11;;;;;;;3.97;0.90;;;27.50;72.90;;;;;;14711361;23;20351;-57
2021/06/21 13:49:59;;;;;;;3.85;0.82;;;27.70;71.40;;;;;;14711095;23;20101;-58
2021/06/21 13:55:48;;;;;;;3.13;0.90;;;28.00;71.60;;;;;;14679955;22;20378;-58
2021/06/21 14:07:39;;;;;;;6.47;0.90;;;27.80;71.50;;;;;;14711332;23;20382;-58
2021/06/21 14:13:26;;;;;;;2.42;0.82;;;28.10;70.20;;;;;;14711532;23;20491;-58
2021/06/21 14:19:15;;;;;;;2.13;0.80;;;28.10;66.10;;;;;;14711246;23;20111;-58
2021/06/21 14:25:02;;;;;;;5.50;0.90;;;28.40;64.80;;;;;;14703562;22;20025;-59
2021/06/21 14:30:49;;;;;;;3.20;0.98;;;28.60;65.20;;;;;;14680118;23;20021;-60
2021/06/21 14:36:39;;;;;;;4.45;0.80;;;28.50;63.60;;;;;;14713078;23;20033;-59
2021/06/21 14:42:26;;;;;;;3.83;0.98;;;27.90;63.30;;;;;;14715484;23;20021;-58
2021/06/21 14:48:14;;;;;;;3.33;1.05;;;27.70;65.90;;;;;;14717524;23;20108;-59
2021/06/21 14:54:02;;;;;;;1.42;1.00;;;27.60;66.00;;;;;;14715210;22;20148;-59
2021/06/21 14:59:49;;;;;;;2.92;1.10;;;27.60;67.40;;;;;;14714706;23;20021;-58
2021/06/21 15:05:43;;;;;;;2.85;1.15;;;27.70;67.40;;;;;;14714794;23;20420;-59
2021/06/21 15:11:32;;;;;;;6.65;1.00;;;27.80;66.80;;;;;;14714983;22;20025;-59
2021/06/21 15:17:19;;;;;;;2.10;1.23;;;27.80;65.60;;;;;;14714714;23;20114;-59
2021/06/21 15:23:07;;;;;;;3.78;1.00;;;27.70;68.20;;;;;;14722538;22;20108;-59
2021/06/21 15:28:55;;;;;;;3.92;0.88;;;27.80;67.20;;;;;;14691467;23;20049;-58
2021/06/21 15:34:45;;;;;;;1.40;0.80;;;28.00;68.20;;;;;;14682327;23;20029;-58
2021/06/21 15:40:37;;;;;;;5.43;0.90;;;28.10;67.70;;;;;;14681348;23;20029;-58
2021/06/21 15:46:26;;;;;;;1.73;0.80;;;28.40;66.80;;;;;;14685966;23;20500;-58
2021/06/21 15:52:13;;;;;;;6.78;0.85;;;29.00;62.50;;;;;;14713926;23;20123;-59
2021/06/21 15:58:01;;;;;;;3.03;0.80;;;29.90;62.10;;;;;;14713740;22;20100;-59
2021/06/21 16:03:50;;;;;;;2.78;0.90;;;31.00;59.20;;;;;;14724103;22;20518;-59
2021/06/21 16:09:36;;;;;;;3.20;0.80;;;31.90;56.00;;;;;;14720559;22;20048;-59
2021/06/21 16:15:24;;;;;;;3.97;0.82;;;33.10;52.70;;;;;;14713624;23;20021;-58
2021/06/21 16:21:13;;;;;;;1.15;0.60;;;34.30;51.50;;;;;;14715235;22;20027;-59
2021/06/21 16:27:00;;;;;;;3.95;0.90;;;35.00;50.80;;;;;;14699116;23;20028;-58
2021/06/21 16:32:47;;;;;;;1.80;0.68;;;34.50;47.60;;;;;;14713106;23;20424;-59
2021/06/21 16:38:38;;;;;;;4.03;0.80;;;32.90;50.20;;;;;;14712261;23;20096;-58
2021/06/21 16:44:25;;;;;;;3.38;0.82;;;31.90;51.90;;;;;;14712977;22;20037;-58
2021/06/21 16:50:12;;;;;;;2.15;0.90;;;31.60;53.20;;;;;;14712717;23;20025;-58
2021/06/21 16:56:03;;;;;;;4.35;1.00;;;31.20;54.00;;;;;;14711929;23;20025;-59
2021/06/21 17:01:49;;;;;;;1.38;0.70;;;31.60;53.40;;;;;;14712419;23;20021;-59
2021/06/21 17:07:37;;;;;;;2.80;0.88;;;32.40;51.50;;;;;;14711777;22;20099;-59
2021/06/21 17:13:25;;;;;;;1.65;0.85;;;31.40;53.30;;;;;;14710675;23;20028;-60
2021/06/21 17:19:12;;;;;;;2.30;1.10;;;30.50;55.50;;;;;;14711631;22;20558;-59
2021/06/21 17:24:59;;;;;;;1.55;0.82;;;31.20;54.90;;;;;;14709459;23;20098;-59
2021/06/21 17:37:29;;;;;;;3.87;1.00;;;37.20;44.40;;;;;;14707927;22;20438;-58
2021/06/21 17:43:16;;;;;;;3.47;1.15;;;36.90;43.00;;;;;;14711020;23;20021;-58
2021/06/21 17:49:03;;;;;;;2.55;0.80;;;35.40;44.30;;;;;;14711485;22;20029;-59
2021/06/21 17:54:51;;;;;;;4.63;1.65;;;35.00;46.90;;;;;;14711733;23;20044;-59
2021/06/21 18:00:43;;;;;;;5.18;1.92;;;34.10;47.90;;;;;;14711705;23;20021;-59
2021/06/21 18:06:30;;;;;;;5.80;2.40;;;32.90;52.30;;;;;;14711934;23;20025;-59
2021/06/21 18:12:18;;;;;;;6.38;4.32;;;33.10;53.30;;;;;;14610409;23;20513;-59
2021/06/21 18:18:07;;;;;;;5.40;1.67;;;32.60;54.50;;;;;;14716791;22;20103;-59
2021/06/21 18:23:54;;;;;;;2.45;1.38;;;31.10;58.10;;;;;;14715586;23;20025;-59
2021/06/21 18:29:42;;;;;;;2.25;1.33;;;29.70;60.20;;;;;;14686335;23;20029;-59
2021/06/21 18:35:30;;;;;;;3.03;1.60;;;28.80;62.70;;;;;;14682811;23;20045;-59
2021/06/21 18:41:17;;;;;;;4.57;1.60;;;28.20;64.20;;;;;;14682886;23;20032;-58
2021/06/21 18:47:05;;;;;;;3.55;1.58;;;27.70;65.20;;;;;;14684775;23;20359;-58
2021/06/21 18:52:53;;;;;;;2.42;1.42;;;27.40;66.60;;;;;;14679209;23;20021;-60
2021/06/21 18:58:40;;;;;;;4.22;1.58;;;27.10;67.50;;;;;;14684228;23;20103;-57
2021/06/21 19:04:28;;;;;;;3.00;1.48;;;26.80;68.20;;;;;;14682550;23;20036;-58
2021/06/21 19:10:17;;;;;;;4.35;1.67;;;26.70;68.90;;;;;;14681720;23;20499;-57
2021/06/21 19:16:05;;;;;;;2.30;1.50;;;26.60;69.60;;;;;;14685061;23;20031;-59
2021/06/21 19:21:54;;;;;;;5.47;1.80;;;26.50;70.10;;;;;;14685569;23;20025;-56
2021/06/21 19:27:42;;;;;;;7.35;1.42;;;26.40;70.70;;;;;;14683517;23;20017;-57
2021/06/21 19:33:29;;;;;;;6.45;1.13;;;25.80;73.50;;;;;;14684031;23;20025;-58
2021/06/21 19:39:17;;;;;;;4.20;0.88;;;24.90;77.70;;;;;;14685256;23;20967;-60
2021/06/21 19:45:05;;;;;;;3.33;0.85;;;24.30;80.30;;;;;;14683105;23;20027;-58
2021/06/21 19:50:52;;;;;;;3.63;0.90;;;23.90;84.70;;;;;;14681870;23;20017;-59
2021/06/21 19:56:41;;;;;;;3.78;1.00;;;23.00;90.00;;;;;;14683197;23;20029;-57
2021/06/21 20:02:28;;;;;;;3.88;1.20;;;22.20;94.00;;;;;;14677932;23;20040;-56
2021/06/21 20:08:15;;;;;;;1.10;0.70;;;21.90;99.90;;;;;;14683077;23;20593;-59
2021/06/21 20:14:03;;;;;;;6.30;1.52;;;21.70;99.90;;;;;;14682540;23;20129;-59
2021/06/21 20:19:50;;;;;;;5.03;1.17;;;21.80;99.90;;;;;;14679759;23;20025;-60
2021/06/21 20:25:37;;;;;;;4.60;1.10;;;22.10;99.90;;;;;;14682400;23;20383;-59
2021/06/21 20:31:28;;;;;;;4.03;1.20;;;22.20;99.90;;;;;;14681070;23;20031;-60
2021/06/21 20:37:23;;;;;;;3.97;1.35;;;22.40;99.90;;;;;;14680956;23;20032;-60
2021/06/21 20:43:12;;;;;;;2.67;1.10;;;22.30;99.90;;;;;;14678706;23;20103;-59
2021/06/21 20:49:01;;;;;;;3.70;0.90;;;22.40;99.90;;;;;;14680118;23;20023;-55
2021/06/21 20:54:49;;;;;;;6.35;0.90;;;22.50;99.90;;;;;;14681722;23;20075;-52
2021/06/21 21:00:38;;;;;;;5.43;0.70;;;22.30;99.90;;;;;;14681864;23;20945;-56
2021/06/21 21:06:26;;;;;;;6.85;0.95;;;22.20;99.90;;;;;;14680161;23;20025;-59
2021/06/21 21:12:15;;;;;;;4.20;0.85;;;22.30;99.90;;;;;;14684936;23;20082;-56
2021/06/21 21:18:02;;;;;;;5.80;1.27;;;22.40;99.90;;;;;;14656425;23;20033;-57
2021/06/21 21:23:50;;;;;;;6.50;1.55;;;22.40;99.90;;;;;;14683469;23;20021;-55
2021/06/21 21:29:37;;;;;;;2.67;1.17;;;22.30;99.90;;;;;;14676637;23;20357;-56
2021/06/21 21:35:25;;;;;;;7.75;1.05;;;22.20;99.90;;;;;;14680712;23;20046;-58
2021/06/21 21:41:13;;;;;;;5.53;1.38;;;22.20;99.90;;;;;;14662116;23;20029;-57
2021/06/21 21:47:00;;;;;;;6.97;1.70;;;22.20;99.90;;;;;;14664969;23;20435;-56
2021/06/21 21:52:48;;;;;;;6.95;2.30;;;22.20;99.90;;;;;;14682703;23;20625;-55
2021/06/21 21:58:52;;;;;;;2.45;1.52;;;22.10;99.90;;;;;;14678913;23;20032;-54
2021/06/21 22:04:39;;;;;;;5.22;1.23;;;21.80;99.90;;;;;;14680999;23;20032;-56
2021/06/21 22:10:27;;;;;;;4.68;1.40;;;21.60;99.90;;;;;;14681179;23;20024;-53
2021/06/21 22:16:15;;;;;;;3.80;1.10;;;21.70;99.90;;;;;;14676989;23;20049;-56
2021/06/21 22:22:02;;;;;;;5.60;1.40;;;21.80;99.90;;;;;;14683074;23;20029;-55
2021/06/21 22:27:50;;;;;;;5.45;1.38;;;21.80;99.90;;;;;;14680988;23;20096;-56
2021/06/21 22:33:38;;;;;;;1.38;0.85;;;21.80;99.90;;;;;;14680666;23;20025;-57
2021/06/21 22:39:25;;;;;;;1.20;1.00;;;21.80;99.90;;;;;;14681800;23;20379;-57
2021/06/21 22:45:13;;;;;;;4.75;1.40;;;21.80;99.90;;;;;;14686358;23;20091;-56
2021/06/21 22:51:02;;;;;;;3.72;1.00;;;21.90;99.90;;;;;;14681410;23;20069;-55
2021/06/21 22:56:48;;;;;;;2.30;0.90;;;21.90;99.90;;;;;;14679413;23;20040;-54
2021/06/21 23:02:35;;;;;;;4.85;1.10;;;21.70;99.90;;;;;;14681826;23;20017;-55
2021/06/21 23:08:24;;;;;;;3.22;1.05;;;21.70;99.90;;;;;;14678540;23;20506;-53
2021/06/21 23:14:11;;;;;;;4.68;1.20;;;21.70;99.90;;;;;;14683989;23;20112;-55
2021/06/21 23:19:57;;;;;;;1.55;0.95;;;21.70;99.90;;;;;;14684760;23;20029;-57
2021/06/21 23:25:46;;;;;;;6.95;1.30;;;21.70;99.90;;;;;;14681277;23;20021;-54
2021/06/21 23:31:32;;;;;;;3.05;0.70;;;21.70;99.90;;;;;;14683382;23;20483;-55
2021/06/21 23:37:19;;;;;;;1.17;0.63;;;21.80;99.90;;;;;;14681769;23;20358;-54
2021/06/21 23:43:08;;;;;;;2.25;0.80;;;21.90;99.90;;;;;;14682117;23;20025;-55
2021/06/21 23:48:56;;;;;;;3.92;0.93;;;21.90;99.90;;;;;;14684273;23;20165;-56
2021/06/21 23:54:43;;;;;;;1.77;1.20;;;21.90;99.90;;;;;;14680848;23;20029;-57
